LGIR/HER METAR and TAF weather

Enter ICAO airport designator
Station Type Date Time Source
LGIR METAR 2019/12/13 03:20 UTC NOAA

LGIR 130320Z 17007KT 9999 FEW025 09/07 Q1006 NOSIG


Station Type Date Time Source
LGIR Decoded METAR 2019/12/13 03:20 UTC NOAA

Heraklion Airport , Greece (LGIR) 35-20N 025-11E 39M
Dec 12, 2019 - 10:20 PM EST / 2019.12.13 0320 UTC
Wind: from the S (170 degrees) at 8 MPH (7 KT):0
Visibility: greater than 7 mile(s):0
Sky conditions: mostly clear
Temperature: 48 F (9 C)
Dew Point: 44 F (7 C)
Relative Humidity: 87%
Pressure (altimeter): 29.71 in. Hg (1006 hPa)
ob: LGIR 130320Z 17007KT 9999 FEW025 09/07 Q1006 NOSIG
cycle: 3

Station Type Date Time Source
LGIR TAF 2019/12/12 18:16 UTC NOAA

TAF LGIR 121700Z 1218/1318 18010KT 9999 FEW025 SCT080 PROB30
TEMPO 1218/1318 5000 RA FEW018TCU BKN025 OVC070
BECMG 1307/1309 29012KT

Example: see airport list